createdAt,value
2024-02-22T00:00:30.630Z,10.4
2024-02-22T00:20:32.829Z,10.2
2024-02-22T00:40:31.545Z,10.2
2024-02-22T01:00:30.860Z,10.3
2024-02-22T01:20:33.205Z,10.1
2024-02-22T01:40:32.226Z,10
2024-02-22T02:00:33.361Z,9.9
2024-02-22T02:20:32.391Z,9.8
2024-02-22T02:40:30.501Z,9.7
2024-02-22T03:00:32.077Z,9.6
2024-02-22T03:20:37.169Z,9.4
2024-02-22T03:40:32.886Z,9.1
2024-02-22T04:00:36.317Z,8.7
2024-02-22T04:20:35.453Z,8.4
2024-02-22T04:40:32.853Z,8.4
2024-02-22T05:00:36.342Z,8.4
2024-02-22T05:20:33.708Z,8.4
2024-02-22T05:40:32.953Z,8.5
2024-02-22T06:00:32.645Z,8.6
2024-02-22T06:20:35.137Z,8.3
2024-02-22T06:40:32.761Z,8.5
2024-02-22T07:00:33.984Z,8.7
2024-02-22T07:20:50.055Z,8.8
2024-02-22T07:40:50.592Z,8.8
2024-02-22T08:00:50.652Z,9
2024-02-22T08:20:51.875Z,8.9
2024-02-22T08:41:00.178Z,9
2024-02-22T09:00:49.971Z,9.2
2024-02-22T09:20:49.493Z,9.3
2024-02-22T09:40:49.052Z,9.5
2024-02-22T10:00:49.118Z,9.4
2024-02-22T10:20:56.484Z,9.5
2024-02-22T10:40:51.244Z,9.5
2024-02-22T11:00:50.634Z,9.6
2024-02-22T11:20:52.219Z,9.9
2024-02-22T11:40:51.013Z,10
2024-02-22T12:00:50.405Z,10.2
2024-02-22T12:20:51.366Z,10.5
2024-02-22T12:40:50.977Z,10.4
2024-02-22T13:00:52.000Z,10.4
2024-02-22T13:20:57.456Z,10.4
2024-02-22T13:40:53.199Z,9.9
2024-02-22T14:00:51.719Z,10.1
2024-02-22T14:20:50.654Z,10.4
2024-02-22T14:40:52.917Z,10.1
2024-02-22T15:00:51.056Z,10.1
2024-02-22T15:20:50.926Z,10.1
2024-02-22T15:40:49.722Z,10.1
2024-02-22T16:00:50.605Z,10.1
2024-02-22T16:20:51.063Z,10
2024-02-22T16:40:50.099Z,10
2024-02-22T17:00:33.435Z,9.8
2024-02-22T17:20:32.348Z,9.7
2024-02-22T17:40:31.263Z,9.7
2024-02-22T18:00:33.161Z,9.7
2024-02-22T18:20:33.764Z,9.6
2024-02-22T18:40:35.623Z,9.5
2024-02-22T19:00:33.765Z,9.4
2024-02-22T19:20:34.462Z,9.4
2024-02-22T19:40:33.509Z,9.6
2024-02-22T20:00:34.681Z,9.6
2024-02-22T20:20:32.603Z,9.5
2024-02-22T20:40:31.707Z,9.1
2024-02-22T21:00:32.456Z,6.8
2024-02-22T21:20:33.512Z,6.1
2024-02-22T21:40:31.653Z,5.7
2024-02-22T22:20:33.830Z,5.5
2024-02-22T22:40:32.599Z,5.4
2024-02-22T23:00:48.096Z,5.2
2024-02-22T23:20:32.391Z,5.4
2024-02-22T23:40:32.057Z,5.2
